sensor_id;sensor_type;location;lat;lon;timestamp;temperature;humidity
13992;DHT22;7070;53.586;9.692;2022-10-19T00:36:24;12.20;87.10
13992;DHT22;7070;53.586;9.692;2022-10-19T00:38:52;12.30;87.20
13992;DHT22;7070;53.586;9.692;2022-10-19T00:41:21;12.20;87.10
13992;DHT22;7070;53.586;9.692;2022-10-19T00:43:50;12.30;87.20
13992;DHT22;7070;53.586;9.692;2022-10-19T00:46:17;12.40;87.10
13992;DHT22;7070;53.586;9.692;2022-10-19T00:48:44;12.40;87.90
13992;DHT22;7070;53.586;9.692;2022-10-19T00:51:11;12.40;87.00
13992;DHT22;7070;53.586;9.692;2022-10-19T00:53:40;12.40;87.00
13992;DHT22;7070;53.586;9.692;2022-10-19T00:56:11;12.50;87.10
13992;DHT22;7070;53.586;9.692;2022-10-19T00:58:40;12.50;87.00
13992;DHT22;7070;53.586;9.692;2022-10-19T01:01:09;12.50;87.00
13992;DHT22;7070;53.586;9.692;2022-10-19T01:03:38;12.50;86.90
13992;DHT22;7070;53.586;9.692;2022-10-19T01:06:05;12.50;86.80
13992;DHT22;7070;53.586;9.692;2022-10-19T01:08:32;12.50;86.70
13992;DHT22;7070;53.586;9.692;2022-10-19T01:11:11;12.60;86.70
13992;DHT22;7070;53.586;9.692;2022-10-19T01:13:46;12.50;86.50
13992;DHT22;7070;53.586;9.692;2022-10-19T01:16:22;12.50;86.50
13992;DHT22;7070;53.586;9.692;2022-10-19T01:18:57;12.50;86.40
13992;DHT22;7070;53.586;9.692;2022-10-19T01:21:30;12.40;86.40
13992;DHT22;7070;53.586;9.692;2022-10-19T01:24:34;12.50;86.50
13992;DHT22;7070;53.586;9.692;2022-10-19T01:30:10;12.40;86.50
13992;DHT22;7070;53.586;9.692;2022-10-19T01:32:53;12.40;86.50
13992;DHT22;7070;53.586;9.692;2022-10-19T01:35:28;12.40;86.60
13992;DHT22;7070;53.586;9.692;2022-10-19T01:38:08;12.40;86.60
13992;DHT22;7070;53.586;9.692;2022-10-19T01:40:41;12.30;86.40
13992;DHT22;7070;53.586;9.692;2022-10-19T01:43:15;12.40;86.60
13992;DHT22;7070;53.586;9.692;2022-10-19T01:45:49;12.40;86.50
13992;DHT22;7070;53.586;9.692;2022-10-19T01:48:21;12.40;86.60
13992;DHT22;7070;53.586;9.692;2022-10-19T01:50:52;12.30;86.40
13992;DHT22;7070;53.586;9.692;2022-10-19T01:53:22;12.30;86.30
13992;DHT22;7070;53.586;9.692;2022-10-19T01:55:51;12.30;86.40
13992;DHT22;7070;53.586;9.692;2022-10-19T01:58:23;12.30;86.30
13992;DHT22;7070;53.586;9.692;2022-10-19T02:00:55;12.30;86.10
13992;DHT22;7070;53.586;9.692;2022-10-19T02:03:23;12.40;86.00
13992;DHT22;7070;53.586;9.692;2022-10-19T02:05:52;12.30;85.80
13992;DHT22;7070;53.586;9.692;2022-10-19T02:08:24;12.20;85.60
13992;DHT22;7070;53.586;9.692;2022-10-19T02:10:54;12.30;85.60
13992;DHT22;7070;53.586;9.692;2022-10-19T02:13:22;12.30;85.70
13992;DHT22;7070;53.586;9.692;2022-10-19T02:15:53;12.20;85.50
13992;DHT22;7070;53.586;9.692;2022-10-19T02:18:26;12.20;85.40
13992;DHT22;7070;53.586;9.692;2022-10-19T02:20:54;12.20;85.30
13992;DHT22;7070;53.586;9.692;2022-10-19T02:23:23;12.20;85.10
13992;DHT22;7070;53.586;9.692;2022-10-19T02:25:51;12.10;84.70
13992;DHT22;7070;53.586;9.692;2022-10-19T02:28:18;12.10;84.60
13992;DHT22;7070;53.586;9.692;2022-10-19T02:30:45;12.00;84.20
13992;DHT22;7070;53.586;9.692;2022-10-19T02:33:14;12.00;84.00
13992;DHT22;7070;53.586;9.692;2022-10-19T02:35:41;11.90;83.60
13992;DHT22;7070;53.586;9.692;2022-10-19T02:38:10;11.90;83.60
13992;DHT22;7070;53.586;9.692;2022-10-19T02:40:44;11.70;83.50
13992;DHT22;7070;53.586;9.692;2022-10-19T02:43:15;11.70;83.80
13992;DHT22;7070;53.586;9.692;2022-10-19T02:45:50;11.70;84.10
13992;DHT22;7070;53.586;9.692;2022-10-19T02:48:22;11.70;84.30
13992;DHT22;7070;53.586;9.692;2022-10-19T02:50:50;11.70;84.40
13992;DHT22;7070;53.586;9.692;2022-10-19T02:53:17;11.70;84.40
13992;DHT22;7070;53.586;9.692;2022-10-19T02:55:46;11.70;84.30
13992;DHT22;7070;53.586;9.692;2022-10-19T02:58:13;11.70;84.30
13992;DHT22;7070;53.586;9.692;2022-10-19T03:00:40;11.80;84.30
13992;DHT22;7070;53.586;9.692;2022-10-19T03:03:07;11.80;84.20
13992;DHT22;7070;53.586;9.692;2022-10-19T03:05:36;11.90;84.30
13992;DHT22;7070;53.586;9.692;2022-10-19T03:08:03;11.90;84.20
13992;DHT22;7070;53.586;9.692;2022-10-19T03:10:29;11.90;84.20
13992;DHT22;7070;53.586;9.692;2022-10-19T03:12:56;12.00;84.00
13992;DHT22;7070;53.586;9.692;2022-10-19T03:15:23;12.00;83.90
13992;DHT22;7070;53.586;9.692;2022-10-19T03:17:53;12.10;83.80
13992;DHT22;7070;53.586;9.692;2022-10-19T03:20:20;12.10;83.60
13992;DHT22;7070;53.586;9.692;2022-10-19T03:22:49;12.10;83.50
13992;DHT22;7070;53.586;9.692;2022-10-19T03:25:16;12.10;83.40
13992;DHT22;7070;53.586;9.692;2022-10-19T03:27:42;12.20;83.30
13992;DHT22;7070;53.586;9.692;2022-10-19T03:30:10;12.20;83.10
13992;DHT22;7070;53.586;9.692;2022-10-19T03:32:36;12.20;83.10
13992;DHT22;7070;53.586;9.692;2022-10-19T03:35:04;12.20;83.00
13992;DHT22;7070;53.586;9.692;2022-10-19T03:37:31;12.30;82.90
13992;DHT22;7070;53.586;9.692;2022-10-19T03:39:59;12.30;82.90
13992;DHT22;7070;53.586;9.692;2022-10-19T03:42:26;12.30;82.80
13992;DHT22;7070;53.586;9.692;2022-10-19T03:44:53;12.30;82.70
13992;DHT22;7070;53.586;9.692;2022-10-19T03:47:20;12.30;82.60
13992;DHT22;7070;53.586;9.692;2022-10-19T03:49:46;12.30;82.50
13992;DHT22;7070;53.586;9.692;2022-10-19T03:52:15;12.30;83.20
13992;DHT22;7070;53.586;9.692;2022-10-19T03:54:41;12.30;82.40
13992;DHT22;7070;53.586;9.692;2022-10-19T03:57:10;12.30;82.30
13992;DHT22;7070;53.586;9.692;2022-10-19T03:59:37;12.30;82.30
13992;DHT22;7070;53.586;9.692;2022-10-19T04:02:04;12.30;82.20
13992;DHT22;7070;53.586;9.692;2022-10-19T04:04:30;12.30;82.20
13992;DHT22;7070;53.586;9.692;2022-10-19T04:06:57;12.30;82.20
13992;DHT22;7070;53.586;9.692;2022-10-19T04:09:24;12.40;82.20
13992;DHT22;7070;53.586;9.692;2022-10-19T04:11:51;12.40;82.30
13992;DHT22;7070;53.586;9.692;2022-10-19T04:14:20;12.40;82.30
13992;DHT22;7070;53.586;9.692;2022-10-19T04:16:47;12.40;82.30
13992;DHT22;7070;53.586;9.692;2022-10-19T04:19:14;12.40;82.30
13992;DHT22;7070;53.586;9.692;2022-10-19T04:21:42;12.30;82.30
13992;DHT22;7070;53.586;9.692;2022-10-19T04:24:11;12.40;82.30
13992;DHT22;7070;53.586;9.692;2022-10-19T04:26:40;12.40;82.40
13992;DHT22;7070;53.586;9.692;2022-10-19T04:29:07;12.40;82.30
13992;DHT22;7070;53.586;9.692;2022-10-19T04:31:36;12.40;82.20
13992;DHT22;7070;53.586;9.692;2022-10-19T04:34:03;12.40;82.20
13992;DHT22;7070;53.586;9.692;2022-10-19T04:36:30;12.40;82.00
13992;DHT22;7070;53.586;9.692;2022-10-19T04:38:57;12.40;82.00
13992;DHT22;7070;53.586;9.692;2022-10-19T04:41:24;12.40;82.00
13992;DHT22;7070;53.586;9.692;2022-10-19T04:43:55;13.50;83.00
13992;DHT22;7070;53.586;9.692;2022-10-19T04:46:23;12.40;81.80
13992;DHT22;7070;53.586;9.692;2022-10-19T04:48:52;12.40;81.70
13992;DHT22;7070;53.586;9.692;2022-10-19T04:51:19;12.40;81.60
13992;DHT22;7070;53.586;9.692;2022-10-19T04:53:46;12.40;81.60
13992;DHT22;7070;53.586;9.692;2022-10-19T04:56:15;12.40;81.60
13992;DHT22;7070;53.586;9.692;2022-10-19T04:58:42;12.50;81.80
13992;DHT22;7070;53.586;9.692;2022-10-19T05:01:10;12.40;81.70
13992;DHT22;7070;53.586;9.692;2022-10-19T05:03:37;12.40;81.70
13992;DHT22;7070;53.586;9.692;2022-10-19T05:06:06;12.40;81.80
13992;DHT22;7070;53.586;9.692;2022-10-19T05:08:34;12.40;81.70
13992;DHT22;7070;53.586;9.692;2022-10-19T05:11:02;12.40;81.80
13992;DHT22;7070;53.586;9.692;2022-10-19T05:13:30;12.40;81.80
13992;DHT22;7070;53.586;9.692;2022-10-19T05:15:57;12.50;81.90
13992;DHT22;7070;53.586;9.692;2022-10-19T05:18:24;12.40;81.90
13992;DHT22;7070;53.586;9.692;2022-10-19T05:21:01;12.40;82.00
13992;DHT22;7070;53.586;9.692;2022-10-19T05:23:29;12.50;82.10
13992;DHT22;7070;53.586;9.692;2022-10-19T05:26:04;12.40;82.00
13992;DHT22;7070;53.586;9.692;2022-10-19T05:28:31;12.40;82.10
13992;DHT22;7070;53.586;9.692;2022-10-19T05:31:04;12.50;82.10
13992;DHT22;7070;53.586;9.692;2022-10-19T05:33:32;12.30;81.90
13992;DHT22;7070;53.586;9.692;2022-10-19T05:35:59;12.50;82.10
13992;DHT22;7070;53.586;9.692;2022-10-19T05:38:35;12.50;82.10
13992;DHT22;7070;53.586;9.692;2022-10-19T05:41:02;12.50;82.10
13992;DHT22;7070;53.586;9.692;2022-10-19T05:43:29;12.50;82.00
13992;DHT22;7070;53.586;9.692;2022-10-19T05:45:56;12.40;81.80
13992;DHT22;7070;53.586;9.692;2022-10-19T05:48:23;12.50;81.90
13992;DHT22;7070;53.586;9.692;2022-10-19T05:50:53;12.50;81.90
13992;DHT22;7070;53.586;9.692;2022-10-19T05:53:21;12.50;81.80
13992;DHT22;7070;53.586;9.692;2022-10-19T05:55:49;12.50;81.80
13992;DHT22;7070;53.586;9.692;2022-10-19T05:58:16;12.50;81.80
13992;DHT22;7070;53.586;9.692;2022-10-19T06:00:43;12.50;81.70
13992;DHT22;7070;53.586;9.692;2022-10-19T06:03:09;12.50;81.60
13992;DHT22;7070;53.586;9.692;2022-10-19T06:05:36;12.50;81.50
13992;DHT22;7070;53.586;9.692;2022-10-19T06:08:03;12.50;81.60
13992;DHT22;7070;53.586;9.692;2022-10-19T06:10:30;12.50;81.70
13992;DHT22;7070;53.586;9.692;2022-10-19T06:12:58;12.50;81.70
13992;DHT22;7070;53.586;9.692;2022-10-19T06:15:25;12.60;81.80
13992;DHT22;7070;53.586;9.692;2022-10-19T06:17:51;12.60;81.70
13992;DHT22;7070;53.586;9.692;2022-10-19T06:20:18;12.60;81.70
13992;DHT22;7070;53.586;9.692;2022-10-19T06:22:45;12.60;81.60
13992;DHT22;7070;53.586;9.692;2022-10-19T06:25:12;12.60;81.70
13992;DHT22;7070;53.586;9.692;2022-10-19T06:27:39;12.60;81.70
13992;DHT22;7070;53.586;9.692;2022-10-19T06:30:08;12.70;81.90
13992;DHT22;7070;53.586;9.692;2022-10-19T06:32:35;12.70;81.90
13992;DHT22;7070;53.586;9.692;2022-10-19T06:35:02;12.70;81.80
13992;DHT22;7070;53.586;9.692;2022-10-19T06:37:29;12.80;81.70
13992;DHT22;7070;53.586;9.692;2022-10-19T06:39:56;12.80;81.70
13992;DHT22;7070;53.586;9.692;2022-10-19T06:42:23;12.80;81.70
13992;DHT22;7070;53.586;9.692;2022-10-19T06:44:49;12.80;81.60
13992;DHT22;7070;53.586;9.692;2022-10-19T06:47:17;12.90;81.60
13992;DHT22;7070;53.586;9.692;2022-10-19T06:49:44;12.90;81.50
13992;DHT22;7070;53.586;9.692;2022-10-19T06:52:11;13.00;81.50
13992;DHT22;7070;53.586;9.692;2022-10-19T06:54:46;13.00;81.50
13992;DHT22;7070;53.586;9.692;2022-10-19T06:57:12;13.00;81.40
13992;DHT22;7070;53.586;9.692;2022-10-19T06:59:39;13.00;81.40
13992;DHT22;7070;53.586;9.692;2022-10-19T07:02:06;13.10;81.40
13992;DHT22;7070;53.586;9.692;2022-10-19T07:04:34;13.10;81.30
13992;DHT22;7070;53.586;9.692;2022-10-19T07:07:01;13.20;82.10
13992;DHT22;7070;53.586;9.692;2022-10-19T07:09:28;13.20;81.20
13992;DHT22;7070;53.586;9.692;2022-10-19T07:11:54;13.20;81.30
13992;DHT22;7070;53.586;9.692;2022-10-19T07:14:21;13.30;81.40
13992;DHT22;7070;53.586;9.692;2022-10-19T07:16:49;13.30;81.30
13992;DHT22;7070;53.586;9.692;2022-10-19T07:19:16;13.30;81.10
13992;DHT22;7070;53.586;9.692;2022-10-19T07:21:44;13.40;81.10
13992;DHT22;7070;53.586;9.692;2022-10-19T07:24:11;13.40;81.10
13992;DHT22;7070;53.586;9.692;2022-10-19T07:26:38;13.40;81.00
13992;DHT22;7070;53.586;9.692;2022-10-19T07:29:05;13.40;81.10
13992;DHT22;7070;53.586;9.692;2022-10-19T07:31:31;13.40;81.00
13992;DHT22;7070;53.586;9.692;2022-10-19T07:34:00;13.40;80.80
13992;DHT22;7070;53.586;9.692;2022-10-19T07:36:28;13.40;80.70
13992;DHT22;7070;53.586;9.692;2022-10-19T07:38:57;13.40;80.70
13992;DHT22;7070;53.586;9.692;2022-10-19T07:41:24;13.40;80.60
13992;DHT22;7070;53.586;9.692;2022-10-19T07:43:52;13.30;80.40
13992;DHT22;7070;53.586;9.692;2022-10-19T07:46:20;13.30;80.40
13992;DHT22;7070;53.586;9.692;2022-10-19T07:48:48;13.20;80.40
13992;DHT22;7070;53.586;9.692;2022-10-19T07:51:16;13.10;80.20
13992;DHT22;7070;53.586;9.692;2022-10-19T07:53:44;13.10;80.30
13992;DHT22;7070;53.586;9.692;2022-10-19T07:56:14;13.00;80.30
13992;DHT22;7070;53.586;9.692;2022-10-19T07:58:41;13.00;80.30
13992;DHT22;7070;53.586;9.692;2022-10-19T08:01:11;12.90;80.30
13992;DHT22;7070;53.586;9.692;2022-10-19T08:03:38;12.90;80.50
13992;DHT22;7070;53.586;9.692;2022-10-19T08:06:07;12.80;80.40
13992;DHT22;7070;53.586;9.692;2022-10-19T08:08:34;12.80;80.60
13992;DHT22;7070;53.586;9.692;2022-10-19T08:11:05;12.70;80.70
13992;DHT22;7070;53.586;9.692;2022-10-19T08:13:34;12.70;80.80
13992;DHT22;7070;53.586;9.692;2022-10-19T08:16:01;12.70;80.90
13992;DHT22;7070;53.586;9.692;2022-10-19T08:18:28;12.60;81.00
13992;DHT22;7070;53.586;9.692;2022-10-19T08:20:55;12.60;81.20
13992;DHT22;7070;53.586;9.692;2022-10-19T08:23:22;12.70;81.40
13992;DHT22;7070;53.586;9.692;2022-10-19T08:25:49;12.70;81.40
13992;DHT22;7070;53.586;9.692;2022-10-19T08:28:16;12.70;81.50
13992;DHT22;7070;53.586;9.692;2022-10-19T08:30:44;12.70;81.50
13992;DHT22;7070;53.586;9.692;2022-10-19T08:33:10;12.80;81.70
13992;DHT22;7070;53.586;9.692;2022-10-19T08:35:39;12.80;81.70
13992;DHT22;7070;53.586;9.692;2022-10-19T08:38:06;12.80;81.80
13992;DHT22;7070;53.586;9.692;2022-10-19T08:40:33;12.90;82.10
13992;DHT22;7070;53.586;9.692;2022-10-19T08:43:04;13.00;82.30
13992;DHT22;7070;53.586;9.692;2022-10-19T08:45:40;13.10;82.30
13992;DHT22;7070;53.586;9.692;2022-10-19T08:48:28;13.30;82.20
13992;DHT22;7070;53.586;9.692;2022-10-19T08:50:58;13.40;81.70
13992;DHT22;7070;53.586;9.692;2022-10-19T08:53:31;13.50;81.10
13992;DHT22;7070;53.586;9.692;2022-10-19T08:56:09;13.50;80.80
13992;DHT22;7070;53.586;9.692;2022-10-19T08:58:48;13.50;80.50
13992;DHT22;7070;53.586;9.692;2022-10-19T09:01:28;13.50;80.50
13992;DHT22;7070;53.586;9.692;2022-10-19T09:04:02;13.50;80.40
13992;DHT22;7070;53.586;9.692;2022-10-19T09:06:36;13.50;80.40
13992;DHT22;7070;53.586;9.692;2022-10-19T09:09:10;13.50;80.40
13992;DHT22;7070;53.586;9.692;2022-10-19T09:11:47;13.50;80.50
13992;DHT22;7070;53.586;9.692;2022-10-19T09:14:18;13.60;80.40
13992;DHT22;7070;53.586;9.692;2022-10-19T09:16:46;13.60;80.20
13992;DHT22;7070;53.586;9.692;2022-10-19T09:19:20;13.70;80.30
13992;DHT22;7070;53.586;9.692;2022-10-19T09:21:53;13.80;80.40
13992;DHT22;7070;53.586;9.692;2022-10-19T09:24:28;13.90;80.30
13992;DHT22;7070;53.586;9.692;2022-10-19T09:26:57;14.00;80.20
13992;DHT22;7070;53.586;9.692;2022-10-19T09:29:29;14.10;80.10
13992;DHT22;7070;53.586;9.692;2022-10-19T09:31:59;14.20;79.70
13992;DHT22;7070;53.586;9.692;2022-10-19T09:34:30;14.30;79.40
13992;DHT22;7070;53.586;9.692;2022-10-19T09:36:59;14.30;79.10
13992;DHT22;7070;53.586;9.692;2022-10-19T09:39:28;14.30;78.90
13992;DHT22;7070;53.586;9.692;2022-10-19T09:41:56;14.30;79.00
13992;DHT22;7070;53.586;9.692;2022-10-19T09:44:24;14.30;79.10
13992;DHT22;7070;53.586;9.692;2022-10-19T09:46:56;14.40;79.20
13992;DHT22;7070;53.586;9.692;2022-10-19T09:49:39;14.40;79.20
13992;DHT22;7070;53.586;9.692;2022-10-19T09:52:22;14.50;79.30
13992;DHT22;7070;53.586;9.692;2022-10-19T09:54:58;14.50;79.40
13992;DHT22;7070;53.586;9.692;2022-10-19T09:57:26;14.70;79.80
13992;DHT22;7070;53.586;9.692;2022-10-19T09:59:54;14.80;79.60
13992;DHT22;7070;53.586;9.692;2022-10-19T10:02:27;15.00;79.70
13992;DHT22;7070;53.586;9.692;2022-10-19T10:05:04;15.10;79.50
13992;DHT22;7070;53.586;9.692;2022-10-19T10:07:34;15.30;79.50
13992;DHT22;7070;53.586;9.692;2022-10-19T10:10:05;15.40;78.80
13992;DHT22;7070;53.586;9.692;2022-10-19T10:12:34;15.50;78.50
13992;DHT22;7070;53.586;9.692;2022-10-19T10:15:04;15.60;78.00
13992;DHT22;7070;53.586;9.692;2022-10-19T10:17:31;15.70;77.70
13992;DHT22;7070;53.586;9.692;2022-10-19T10:20:19;15.70;77.20
13992;DHT22;7070;53.586;9.692;2022-10-19T10:22:53;15.70;77.20
13992;DHT22;7070;53.586;9.692;2022-10-19T10:25:25;15.60;76.90
13992;DHT22;7070;53.586;9.692;2022-10-19T10:27:57;15.50;76.70
13992;DHT22;7070;53.586;9.692;2022-10-19T10:30:26;15.50;76.80
13992;DHT22;7070;53.586;9.692;2022-10-19T10:32:55;15.40;76.70
13992;DHT22;7070;53.586;9.692;2022-10-19T10:35:26;15.40;77.00
13992;DHT22;7070;53.586;9.692;2022-10-19T10:38:05;15.40;77.20
13992;DHT22;7070;53.586;9.692;2022-10-19T10:40:33;15.40;77.50
13992;DHT22;7070;53.586;9.692;2022-10-19T10:43:03;15.50;77.20
13992;DHT22;7070;53.586;9.692;2022-10-19T10:45:33;15.50;77.20
13992;DHT22;7070;53.586;9.692;2022-10-19T10:48:13;15.50;77.00
13992;DHT22;7070;53.586;9.692;2022-10-19T10:50:42;15.50;76.80
13992;DHT22;7070;53.586;9.692;2022-10-19T10:53:31;15.50;76.50
13992;DHT22;7070;53.586;9.692;2022-10-19T10:55:58;15.40;76.40
13992;DHT22;7070;53.586;9.692;2022-10-19T10:58:33;15.30;76.30
13992;DHT22;7070;53.586;9.692;2022-10-19T11:01:04;15.30;76.60
13992;DHT22;7070;53.586;9.692;2022-10-19T11:03:35;15.20;76.50
13992;DHT22;7070;53.586;9.692;2022-10-19T11:06:07;15.20;76.20
13992;DHT22;7070;53.586;9.692;2022-10-19T11:08:47;15.20;76.50
13992;DHT22;7070;53.586;9.692;2022-10-19T11:11:18;15.10;76.40
13992;DHT22;7070;53.586;9.692;2022-10-19T11:13:50;15.10;76.20
13992;DHT22;7070;53.586;9.692;2022-10-19T11:16:21;15.00;75.90
13992;DHT22;7070;53.586;9.692;2022-10-19T11:18:52;15.00;75.90
13992;DHT22;7070;53.586;9.692;2022-10-19T11:21:27;14.90;76.00
13992;DHT22;7070;53.586;9.692;2022-10-19T11:24:05;14.90;76.10
13992;DHT22;7070;53.586;9.692;2022-10-19T11:26:42;14.80;76.20
13992;DHT22;7070;53.586;9.692;2022-10-19T11:29:24;14.80;76.10
13992;DHT22;7070;53.586;9.692;2022-10-19T11:31:55;14.80;76.20
13992;DHT22;7070;53.586;9.692;2022-10-19T11:34:40;14.70;75.90
13992;DHT22;7070;53.586;9.692;2022-10-19T11:37:20;14.60;75.80
13992;DHT22;7070;53.586;9.692;2022-10-19T11:40:01;14.60;75.80
13992;DHT22;7070;53.586;9.692;2022-10-19T11:42:43;14.60;76.10
13992;DHT22;7070;53.586;9.692;2022-10-19T11:45:19;14.60;76.60
13992;DHT22;7070;53.586;9.692;2022-10-19T11:48:05;14.70;77.20
13992;DHT22;7070;53.586;9.692;2022-10-19T11:50:39;14.80;77.60
13992;DHT22;7070;53.586;9.692;2022-10-19T11:53:17;14.90;77.50
13992;DHT22;7070;53.586;9.692;2022-10-19T11:55:54;15.10;77.50
13992;DHT22;7070;53.586;9.692;2022-10-19T11:58:43;15.20;77.10
13992;DHT22;7070;53.586;9.692;2022-10-19T12:01:18;15.30;76.30
13992;DHT22;7070;53.586;9.692;2022-10-19T12:04:11;15.50;76.10
13992;DHT22;7070;53.586;9.692;2022-10-19T12:06:47;15.50;76.10
13992;DHT22;7070;53.586;9.692;2022-10-19T12:09:26;15.60;75.80
13992;DHT22;7070;53.586;9.692;2022-10-19T12:12:04;15.70;75.80
13992;DHT22;7070;53.586;9.692;2022-10-19T12:14:38;15.70;75.70
13992;DHT22;7070;53.586;9.692;2022-10-19T12:17:11;15.70;75.20
13992;DHT22;7070;53.586;9.692;2022-10-19T12:19:43;15.70;75.10
13992;DHT22;7070;53.586;9.692;2022-10-19T12:22:16;15.70;75.10
13992;DHT22;7070;53.586;9.692;2022-10-19T12:24:45;15.60;75.20
13992;DHT22;7070;53.586;9.692;2022-10-19T12:27:13;15.60;75.50
13992;DHT22;7070;53.586;9.692;2022-10-19T12:29:43;15.60;75.70
13992;DHT22;7070;53.586;9.692;2022-10-19T12:32:13;15.70;76.00
13992;DHT22;7070;53.586;9.692;2022-10-19T12:34:45;15.80;75.80
13992;DHT22;7070;53.586;9.692;2022-10-19T12:37:20;16.00;75.90
13992;DHT22;7070;53.586;9.692;2022-10-19T12:39:58;16.10;75.70
13992;DHT22;7070;53.586;9.692;2022-10-19T12:42:29;16.20;75.60
13992;DHT22;7070;53.586;9.692;2022-10-19T12:45:16;16.20;75.40
13992;DHT22;7070;53.586;9.692;2022-10-19T12:48:18;16.30;75.60
13992;DHT22;7070;53.586;9.692;2022-10-19T12:51:14;16.30;75.30
13992;DHT22;7070;53.586;9.692;2022-10-19T12:53:43;16.40;75.80
13992;DHT22;7070;53.586;9.692;2022-10-19T12:56:17;16.40;74.50
13992;DHT22;7070;53.586;9.692;2022-10-19T12:58:50;16.50;74.40
13992;DHT22;7070;53.586;9.692;2022-10-19T13:01:21;16.40;73.90
13992;DHT22;7070;53.586;9.692;2022-10-19T13:03:52;16.30;73.70
13992;DHT22;7070;53.586;9.692;2022-10-19T13:06:30;16.30;73.60
13992;DHT22;7070;53.586;9.692;2022-10-19T13:09:00;16.20;73.70
13992;DHT22;7070;53.586;9.692;2022-10-19T13:11:30;16.10;73.40
13992;DHT22;7070;53.586;9.692;2022-10-19T13:13:59;16.10;73.40
13992;DHT22;7070;53.586;9.692;2022-10-19T13:19:21;15.90;73.80
13992;DHT22;7070;53.586;9.692;2022-10-19T13:25:21;15.80;73.50
13992;DHT22;7070;53.586;9.692;2022-10-19T13:27:53;15.80;73.50
13992;DHT22;7070;53.586;9.692;2022-10-19T13:33:48;15.60;73.40
13992;DHT22;7070;53.586;9.692;2022-10-19T13:36:16;15.60;73.40
13992;DHT22;7070;53.586;9.692;2022-10-19T13:38:44;15.50;73.50
13992;DHT22;7070;53.586;9.692;2022-10-19T13:41:17;15.50;73.60
13992;DHT22;7070;53.586;9.692;2022-10-19T13:43:59;15.50;73.60
13992;DHT22;7070;53.586;9.692;2022-10-19T13:46:39;15.40;73.30
13992;DHT22;7070;53.586;9.692;2022-10-19T13:49:30;15.40;73.20
13992;DHT22;7070;53.586;9.692;2022-10-19T13:55:16;15.30;73.10
13992;DHT22;7070;53.586;9.692;2022-10-19T13:57:57;15.20;73.10
13992;DHT22;7070;53.586;9.692;2022-10-19T14:00:33;15.20;73.00
13992;DHT22;7070;53.586;9.692;2022-10-19T14:03:17;15.20;73.20
13992;DHT22;7070;53.586;9.692;2022-10-19T14:05:55;15.20;73.40
13992;DHT22;7070;53.586;9.692;2022-10-19T14:08:39;15.10;73.30
13992;DHT22;7070;53.586;9.692;2022-10-19T14:11:12;15.10;73.30
13992;DHT22;7070;53.586;9.692;2022-10-19T14:13:40;15.10;73.40
13992;DHT22;7070;53.586;9.692;2022-10-19T14:16:17;15.10;73.40
13992;DHT22;7070;53.586;9.692;2022-10-19T14:18:52;15.10;74.30
13992;DHT22;7070;53.586;9.692;2022-10-19T14:21:28;15.00;73.60
13992;DHT22;7070;53.586;9.692;2022-10-19T14:23:55;15.00;73.50
13992;DHT22;7070;53.586;9.692;2022-10-19T14:26:25;15.00;73.10
13992;DHT22;7070;53.586;9.692;2022-10-19T14:28:54;14.90;73.00
13992;DHT22;7070;53.586;9.692;2022-10-19T14:31:26;14.90;73.70
13992;DHT22;7070;53.586;9.692;2022-10-19T14:34:00;14.80;72.90
13992;DHT22;7070;53.586;9.692;2022-10-19T14:36:31;14.80;73.00
13992;DHT22;7070;53.586;9.692;2022-10-19T14:38:59;14.80;73.10
13992;DHT22;7070;53.586;9.692;2022-10-19T14:41:30;14.80;73.00
13992;DHT22;7070;53.586;9.692;2022-10-19T14:43:58;14.80;73.00
13992;DHT22;7070;53.586;9.692;2022-10-19T14:46:30;14.80;72.90
13992;DHT22;7070;53.586;9.692;2022-10-19T14:49:02;14.80;72.90
13992;DHT22;7070;53.586;9.692;2022-10-19T14:51:34;14.80;72.90
13992;DHT22;7070;53.586;9.692;2022-10-19T14:54:05;14.80;72.90
13992;DHT22;7070;53.586;9.692;2022-10-19T14:56:36;14.70;72.70
13992;DHT22;7070;53.586;9.692;2022-10-19T14:59:13;14.70;72.60
13992;DHT22;7070;53.586;9.692;2022-10-19T15:01:48;14.70;72.60
13992;DHT22;7070;53.586;9.692;2022-10-19T15:04:18;14.60;72.50
13992;DHT22;7070;53.586;9.692;2022-10-19T15:06:45;14.60;72.70
13992;DHT22;7070;53.586;9.692;2022-10-19T15:09:18;14.60;73.00
13992;DHT22;7070;53.586;9.692;2022-10-19T15:11:46;14.70;73.20
13992;DHT22;7070;53.586;9.692;2022-10-19T15:14:16;14.70;72.80
13992;DHT22;7070;53.586;9.692;2022-10-19T15:16:50;14.70;72.60
13992;DHT22;7070;53.586;9.692;2022-10-19T15:19:22;14.70;72.60
13992;DHT22;7070;53.586;9.692;2022-10-19T15:22:09;14.80;72.40
13992;DHT22;7070;53.586;9.692;2022-10-19T15:24:37;14.70;72.50
13992;DHT22;7070;53.586;9.692;2022-10-19T15:27:08;14.60;72.20
13992;DHT22;7070;53.586;9.692;2022-10-19T15:29:36;14.60;72.40
13992;DHT22;7070;53.586;9.692;2022-10-19T15:32:17;14.40;72.20
13992;DHT22;7070;53.586;9.692;2022-10-19T15:34:47;14.40;72.60
13992;DHT22;7070;53.586;9.692;2022-10-19T15:37:17;14.20;72.40
13992;DHT22;7070;53.586;9.692;2022-10-19T15:39:46;14.20;72.50
13992;DHT22;7070;53.586;9.692;2022-10-19T15:42:33;14.00;72.60
13992;DHT22;7070;53.586;9.692;2022-10-19T15:45:01;13.90;72.70
13992;DHT22;7070;53.586;9.692;2022-10-19T15:47:29;13.80;72.80
13992;DHT22;7070;53.586;9.692;2022-10-19T15:49:58;13.70;72.80
13992;DHT22;7070;53.586;9.692;2022-10-19T15:52:27;13.60;72.90
13992;DHT22;7070;53.586;9.692;2022-10-19T15:54:55;13.50;73.00
13992;DHT22;7070;53.586;9.692;2022-10-19T15:57:28;13.40;73.00
13992;DHT22;7070;53.586;9.692;2022-10-19T15:59:56;13.20;73.00
13992;DHT22;7070;53.586;9.692;2022-10-19T16:02:24;13.10;73.20
13992;DHT22;7070;53.586;9.692;2022-10-19T16:04:52;13.00;73.30
13992;DHT22;7070;53.586;9.692;2022-10-19T16:07:24;12.90;73.40
13992;DHT22;7070;53.586;9.692;2022-10-19T16:09:52;12.80;73.40
13992;DHT22;7070;53.586;9.692;2022-10-19T16:12:18;12.70;73.50
13992;DHT22;7070;53.586;9.692;2022-10-19T16:14:45;12.50;73.40
13992;DHT22;7070;53.586;9.692;2022-10-19T16:17:12;12.40;73.40
13992;DHT22;7070;53.586;9.692;2022-10-19T16:19:40;12.30;73.50
13992;DHT22;7070;53.586;9.692;2022-10-19T16:22:08;12.20;73.60
13992;DHT22;7070;53.586;9.692;2022-10-19T16:24:35;12.10;73.70
13992;DHT22;7070;53.586;9.692;2022-10-19T16:27:02;12.00;73.90
13992;DHT22;7070;53.586;9.692;2022-10-19T16:29:28;11.90;74.00
13992;DHT22;7070;53.586;9.692;2022-10-19T16:31:55;11.70;73.90
13992;DHT22;7070;53.586;9.692;2022-10-19T16:34:22;11.60;74.00
13992;DHT22;7070;53.586;9.692;2022-10-19T16:36:49;11.50;74.10
13992;DHT22;7070;53.586;9.692;2022-10-19T16:39:17;11.40;74.20
13992;DHT22;7070;53.586;9.692;2022-10-19T16:41:44;11.30;74.40
13992;DHT22;7070;53.586;9.692;2022-10-19T16:44:11;11.20;74.50
13992;DHT22;7070;53.586;9.692;2022-10-19T16:46:38;11.10;74.50
13992;DHT22;7070;53.586;9.692;2022-10-19T16:49:04;11.00;74.60
13992;DHT22;7070;53.586;9.692;2022-10-19T16:51:36;10.90;75.40
13992;DHT22;7070;53.586;9.692;2022-10-19T16:54:05;10.90;74.90
13992;DHT22;7070;53.586;9.692;2022-10-19T16:56:34;10.80;74.90
13992;DHT22;7070;53.586;9.692;2022-10-19T16:59:02;10.70;74.90